Time;durP1;ratioP1;P1;durP2;ratioP2;P2;SDS_P1;SDS_P2;PMS_P1;PMS_P2;Temp;Humidity;BMP_temperature;BMP_pressure;BME280_temperature;BME280_humidity;BME280_pressure;Samples;Min_cycle;Max_cycle;Signal;HPM_P1;HPM_P2
2023/05/31 00:00:26;;;;;;;6.32;3.97;;;;;;;;;;5069706;28;20052;-72
2023/05/31 00:02:52;;;;;;;8.27;3.60;;;;;;;;;;5073013;28;20025;-71
2023/05/31 00:05:18;;;;;;;7.30;3.63;;;;;;;;;;5055363;28;20025;-72
2023/05/31 00:07:47;;;;;;;8.35;4.95;;;;;;;;;;5053148;28;20148;-71
2023/05/31 00:10:13;;;;;;;8.65;4.93;;;;;;;;;;5071257;28;20028;-72
2023/05/31 00:12:39;;;;;;;8.32;4.15;;;;;;;;;;5061445;28;20055;-71
2023/05/31 00:15:05;;;;;;;7.10;3.20;;;;;;;;;;5069824;28;20060;-72
2023/05/31 00:17:31;;;;;;;7.97;3.55;;;;;;;;;;5060886;28;20025;-72
2023/05/31 00:19:57;;;;;;;8.13;4.35;;;;;;;;;;5050306;28;20491;-71
2023/05/31 00:22:23;;;;;;;7.13;4.22;;;;;;;;;;5064796;28;20028;-73
2023/05/31 00:24:49;;;;;;;12.68;4.68;;;;;;;;;;5058981;28;20024;-72
2023/05/31 00:27:15;;;;;;;9.50;4.60;;;;;;;;;;5054579;28;20032;-73
2023/05/31 00:29:41;;;;;;;7.55;2.85;;;;;;;;;;5072110;28;20033;-73
2023/05/31 00:32:07;;;;;;;8.07;2.88;;;;;;;;;;5070993;28;20035;-72
2023/05/31 00:34:33;;;;;;;8.93;2.88;;;;;;;;;;5054303;28;20025;-73
2023/05/31 00:36:59;;;;;;;11.43;6.00;;;;;;;;;;5052505;28;20456;-73
2023/05/31 00:39:25;;;;;;;9.05;4.28;;;;;;;;;;5070312;28;20118;-71
2023/05/31 00:41:51;;;;;;;7.53;2.90;;;;;;;;;;5072260;28;20025;-71
2023/05/31 00:44:17;;;;;;;10.55;4.22;;;;;;;;;;5066556;28;20109;-72
2023/05/31 00:46:44;;;;;;;7.82;3.60;;;;;;;;;;5056426;28;20798;-71
2023/05/31 00:49:10;;;;;;;11.88;3.45;;;;;;;;;;5048077;28;20036;-72
2023/05/31 00:51:37;;;;;;;7.72;4.18;;;;;;;;;;5052042;28;20040;-73
2023/05/31 00:54:03;;;;;;;11.52;6.40;;;;;;;;;;5057247;28;20029;-73
2023/05/31 00:56:29;;;;;;;9.23;4.35;;;;;;;;;;5072193;28;20035;-71
2023/05/31 00:58:56;;;;;;;9.95;5.43;;;;;;;;;;5065884;28;20091;-72
2023/05/31 01:01:27;;;;;;;10.10;4.10;;;;;;;;;;5061564;28;20036;-72
2023/05/31 01:03:57;;;;;;;9.52;5.03;;;;;;;;;;5037198;28;20493;-73
2023/05/31 01:06:23;;;;;;;;;;;;;;;;;;5066194;28;20042;-73
2023/05/31 01:08:49;;;;;;;9.98;5.32;;;;;;;;;;5062672;28;19930;-71
2023/05/31 01:11:25;;;;;;;9.35;4.80;;;;;;;;;;5041619;28;20028;-73
2023/05/31 01:14:10;;;;;;;10.65;5.55;;;;;;;;;;5049104;28;20510;-73
2023/05/31 01:16:41;;;;;;;9.13;4.93;;;;;;;;;;5058818;28;20032;-73
2023/05/31 01:19:15;;;;;;;11.23;6.97;;;;;;;;;;5059022;28;20817;-73
2023/05/31 01:21:52;;;;;;;9.18;5.20;;;;;;;;;;5058405;28;20029;-72
2023/05/31 01:24:36;;;;;;;9.43;5.05;;;;;;;;;;5071853;28;20031;-74
2023/05/31 01:27:03;;;;;;;8.52;3.10;;;;;;;;;;5063817;28;20036;-73
2023/05/31 01:29:30;;;;;;;11.38;6.68;;;;;;;;;;5052221;28;20033;-74
2023/05/31 01:31:59;;;;;;;11.23;6.82;;;;;;;;;;5071472;28;20505;-73
2023/05/31 01:34:25;;;;;;;9.75;3.95;;;;;;;;;;5070751;28;20027;-73
2023/05/31 01:36:51;;;;;;;9.32;5.75;;;;;;;;;;5062804;28;20039;-72
2023/05/31 01:39:18;;;;;;;9.43;3.35;;;;;;;;;;5058144;28;20032;-72
2023/05/31 01:41:46;;;;;;;10.60;2.97;;;;;;;;;;5067500;28;20056;-71
2023/05/31 01:44:14;;;;;;;7.47;2.83;;;;;;;;;;5070158;28;20390;-72
2023/05/31 01:46:41;;;;;;;14.85;5.43;;;;;;;;;;5058973;28;20067;-72
2023/05/31 01:49:07;;;;;;;10.50;3.95;;;;;;;;;;5051091;28;20431;-73
2023/05/31 01:51:33;;;;;;;9.05;4.95;;;;;;;;;;5051332;28;20032;-72
2023/05/31 01:54:00;;;;;;;7.20;3.67;;;;;;;;;;5050203;28;20029;-72
2023/05/31 01:56:28;;;;;;;8.02;3.10;;;;;;;;;;5059649;28;20030;-71
2023/05/31 01:58:55;;;;;;;12.45;4.32;;;;;;;;;;5054293;28;20472;-73
2023/05/31 02:01:21;;;;;;;12.60;4.05;;;;;;;;;;5059374;28;20142;-73
2023/05/31 02:03:49;;;;;;;10.23;3.05;;;;;;;;;;5066628;28;20139;-73
2023/05/31 02:06:15;;;;;;;14.23;7.20;;;;;;;;;;5060954;28;20112;-72
2023/05/31 02:08:41;;;;;;;13.00;5.55;;;;;;;;;;5067717;28;20035;-71
2023/05/31 02:11:07;;;;;;;11.60;3.80;;;;;;;;;;5070996;28;20032;-72
2023/05/31 02:13:35;;;;;;;11.27;4.72;;;;;;;;;;5057486;28;20025;-72
2023/05/31 02:16:01;;;;;;;10.18;4.70;;;;;;;;;;5070313;28;20040;-72
2023/05/31 02:18:27;;;;;;;11.95;4.25;;;;;;;;;;5056962;28;20079;-71
2023/05/31 02:20:54;;;;;;;13.65;6.25;;;;;;;;;;5060803;28;20483;-73
2023/05/31 02:23:20;;;;;;;11.82;3.55;;;;;;;;;;5064597;28;20024;-72
2023/05/31 02:25:47;;;;;;;9.93;5.22;;;;;;;;;;5060140;28;20028;-73
2023/05/31 02:28:13;;;;;;;9.55;4.93;;;;;;;;;;5067729;28;20032;-72
2023/05/31 02:30:40;;;;;;;10.43;6.25;;;;;;;;;;5050458;28;20029;-72
2023/05/31 02:33:07;;;;;;;13.23;8.10;;;;;;;;;;5064249;28;20028;-72
2023/05/31 02:35:33;;;;;;;10.43;5.22;;;;;;;;;;5070192;28;20016;-71
2023/05/31 02:37:59;;;;;;;13.65;7.55;;;;;;;;;;5069940;28;20074;-71
2023/05/31 02:40:25;;;;;;;16.38;8.07;;;;;;;;;;5062628;28;20029;-73
2023/05/31 02:42:51;;;;;;;11.15;5.50;;;;;;;;;;5049758;28;20036;-72
2023/05/31 02:45:18;;;;;;;10.57;4.38;;;;;;;;;;5049864;28;20029;-72
2023/05/31 02:47:44;;;;;;;8.88;5.70;;;;;;;;;;5051427;28;20060;-73
2023/05/31 02:50:10;;;;;;;10.45;4.95;;;;;;;;;;5049592;28;20056;-72
2023/05/31 02:52:37;;;;;;;14.38;3.55;;;;;;;;;;5051443;28;20100;-72
2023/05/31 02:55:04;;;;;;;14.43;7.07;;;;;;;;;;5062546;28;20096;-72
2023/05/31 02:57:30;;;;;;;14.80;6.22;;;;;;;;;;5049958;28;20025;-72
2023/05/31 02:59:58;;;;;;;9.57;5.07;;;;;;;;;;5049692;28;20044;-72
2023/05/31 03:02:24;;;;;;;13.30;6.60;;;;;;;;;;5049870;28;20036;-72
2023/05/31 03:04:50;;;;;;;12.98;7.18;;;;;;;;;;5057574;28;20033;-72
2023/05/31 03:07:16;;;;;;;13.68;6.50;;;;;;;;;;5068656;28;20390;-71
2023/05/31 03:09:42;;;;;;;17.98;10.57;;;;;;;;;;5058351;28;20351;-72
2023/05/31 03:12:09;;;;;;;13.15;6.43;;;;;;;;;;5056052;28;20032;-72
2023/05/31 03:14:35;;;;;;;13.13;7.60;;;;;;;;;;5069492;28;20052;-73
2023/05/31 03:17:03;;;;;;;11.65;6.90;;;;;;;;;;5069448;28;20055;-71
2023/05/31 03:19:30;;;;;;;14.00;8.95;;;;;;;;;;5062767;28;20067;-73
2023/05/31 03:21:56;;;;;;;14.98;8.23;;;;;;;;;;5063273;28;20111;-71
2023/05/31 03:24:22;;;;;;;13.75;6.63;;;;;;;;;;5050522;28;20590;-71
2023/05/31 03:26:48;;;;;;;17.35;3.70;;;;;;;;;;5052775;28;20066;-71
2023/05/31 03:29:14;;;;;;;17.77;9.80;;;;;;;;;;5069218;28;20036;-71
2023/05/31 03:31:41;;;;;;;18.08;11.05;;;;;;;;;;5053803;28;20021;-71
2023/05/31 03:34:07;;;;;;;12.75;7.53;;;;;;;;;;5050055;28;20025;-70
2023/05/31 03:36:33;;;;;;;12.75;6.30;;;;;;;;;;5050224;28;20078;-72
2023/05/31 03:38:59;;;;;;;13.45;8.15;;;;;;;;;;5059518;28;20020;-71
2023/05/31 03:41:25;;;;;;;14.57;9.65;;;;;;;;;;5056426;28;20044;-71
2023/05/31 03:43:52;;;;;;;17.52;7.65;;;;;;;;;;5060723;28;20025;-72
2023/05/31 03:46:18;;;;;;;19.67;10.90;;;;;;;;;;5050124;28;20036;-72
2023/05/31 03:48:45;;;;;;;19.42;11.68;;;;;;;;;;5050321;28;20013;-72
2023/05/31 03:51:11;;;;;;;19.73;11.25;;;;;;;;;;5054504;28;20059;-71
2023/05/31 03:53:37;;;;;;;16.52;10.43;;;;;;;;;;5069753;28;20029;-72
2023/05/31 03:56:03;;;;;;;14.07;8.82;;;;;;;;;;5046455;28;20033;-72
2023/05/31 03:58:29;;;;;;;12.35;4.38;;;;;;;;;;5060015;28;20424;-73
2023/05/31 04:00:56;;;;;;;13.75;6.90;;;;;;;;;;5063480;28;20025;-72
2023/05/31 04:03:22;;;;;;;13.23;4.60;;;;;;;;;;5060686;28;20025;-72
2023/05/31 04:05:48;;;;;;;16.83;8.88;;;;;;;;;;5069051;28;20029;-72
2023/05/31 04:08:14;;;;;;;11.48;4.72;;;;;;;;;;5050318;28;20532;-72
2023/05/31 04:10:41;;;;;;;8.48;3.55;;;;;;;;;;5068607;28;20024;-73
2023/05/31 04:13:07;;;;;;;15.43;7.68;;;;;;;;;;5056706;28;20143;-71
2023/05/31 04:15:33;;;;;;;14.00;7.32;;;;;;;;;;5061635;28;20079;-72
2023/05/31 04:17:59;;;;;;;18.25;11.07;;;;;;;;;;5048330;28;20021;-73
2023/05/31 04:20:25;;;;;;;15.77;6.72;;;;;;;;;;5063679;28;20029;-73
2023/05/31 04:22:53;;;;;;;15.45;8.23;;;;;;;;;;5058930;28;20307;-72
2023/05/31 04:25:19;;;;;;;12.40;5.53;;;;;;;;;;5054695;28;20028;-73
2023/05/31 04:27:45;;;;;;;15.73;10.15;;;;;;;;;;5067177;28;20136;-73
2023/05/31 04:30:11;;;;;;;16.48;8.02;;;;;;;;;;5050505;28;20061;-73
2023/05/31 04:32:38;;;;;;;20.80;13.07;;;;;;;;;;5058050;28;20028;-72
2023/05/31 04:35:05;;;;;;;14.45;5.90;;;;;;;;;;5055460;28;20024;-71
2023/05/31 04:37:32;;;;;;;11.13;5.50;;;;;;;;;;5054865;28;20047;-72
2023/05/31 04:40:03;;;;;;;13.27;8.32;;;;;;;;;;5061428;28;20395;-72
2023/05/31 04:42:29;;;;;;;12.25;4.25;;;;;;;;;;5050157;28;20032;-72
2023/05/31 04:45:01;;;;;;;20.55;11.93;;;;;;;;;;5054474;28;20024;-72
2023/05/31 04:47:29;;;;;;;15.70;3.80;;;;;;;;;;5071393;28;20060;-71
2023/05/31 04:49:56;;;;;;;15.13;10.13;;;;;;;;;;5047671;28;20031;-73
2023/05/31 04:52:30;;;;;;;12.10;4.80;;;;;;;;;;5067295;28;20478;-71
2023/05/31 04:54:57;;;;;;;16.35;3.60;;;;;;;;;;5069927;28;20029;-72
2023/05/31 04:57:23;;;;;;;19.50;9.50;;;;;;;;;;5063368;28;20024;-73
2023/05/31 04:59:49;;;;;;;21.25;6.78;;;;;;;;;;5070451;28;20158;-71
2023/05/31 05:02:15;;;;;;;20.05;11.52;;;;;;;;;;5054865;28;20089;-73
2023/05/31 05:04:41;;;;;;;10.93;5.18;;;;;;;;;;5057334;28;20043;-72
2023/05/31 05:07:07;;;;;;;23.63;10.95;;;;;;;;;;5070054;28;20045;-71
2023/05/31 05:09:33;;;;;;;16.15;7.82;;;;;;;;;;5057942;28;20394;-72
2023/05/31 05:12:00;;;;;;;17.48;7.97;;;;;;;;;;5039563;28;20025;-72
2023/05/31 05:14:26;;;;;;;13.73;7.28;;;;;;;;;;5064367;28;20441;-72
2023/05/31 05:16:52;;;;;;;18.45;6.93;;;;;;;;;;5064177;28;20028;-72
2023/05/31 05:19:18;;;;;;;17.83;8.82;;;;;;;;;;5050617;28;20031;-72
2023/05/31 05:21:44;;;;;;;21.85;13.63;;;;;;;;;;5050490;28;20029;-72
2023/05/31 05:24:10;;;;;;;20.10;6.78;;;;;;;;;;5056968;28;20557;-72
2023/05/31 05:26:36;;;;;;;17.98;8.60;;;;;;;;;;5069333;28;20070;-73
2023/05/31 05:29:02;;;;;;;18.77;9.02;;;;;;;;;;5068118;28;20549;-72
2023/05/31 05:31:28;;;;;;;19.15;11.90;;;;;;;;;;5070422;28;20118;-73
2023/05/31 05:33:54;;;;;;;16.83;8.55;;;;;;;;;;5065761;28;20359;-72
2023/05/31 05:36:22;;;;;;;17.80;9.23;;;;;;;;;;5071317;28;20028;-72
2023/05/31 05:38:48;;;;;;;17.45;9.50;;;;;;;;;;5070230;28;20098;-72
2023/05/31 05:41:14;;;;;;;17.48;7.78;;;;;;;;;;5070507;28;20027;-73
2023/05/31 05:43:40;;;;;;;18.25;10.85;;;;;;;;;;5069877;28;20024;-73
2023/05/31 05:46:06;;;;;;;17.17;9.20;;;;;;;;;;5055190;28;20037;-72
2023/05/31 05:48:33;;;;;;;14.35;7.88;;;;;;;;;;5067656;28;20029;-73
2023/05/31 05:50:59;;;;;;;13.88;6.75;;;;;;;;;;5059089;28;20023;-73
2023/05/31 05:53:25;;;;;;;19.48;13.88;;;;;;;;;;5048549;28;20107;-73
2023/05/31 05:55:52;;;;;;;13.57;7.75;;;;;;;;;;5050843;28;20063;-72
2023/05/31 05:58:18;;;;;;;17.23;9.38;;;;;;;;;;5065726;28;20057;-73
2023/05/31 06:00:45;;;;;;;18.00;10.18;;;;;;;;;;5057624;28;20367;-76
2023/05/31 06:03:11;;;;;;;15.27;10.43;;;;;;;;;;5062171;28;20025;-74
2023/05/31 06:05:37;;;;;;;18.52;11.55;;;;;;;;;;5058091;28;20458;-75
2023/05/31 06:08:03;;;;;;;14.02;7.85;;;;;;;;;;5068488;28;20064;-75
2023/05/31 06:10:31;;;;;;;9.60;4.88;;;;;;;;;;5068049;28;20072;-75
2023/05/31 06:12:57;;;;;;;8.75;5.15;;;;;;;;;;5067009;28;20056;-75
2023/05/31 06:15:24;;;;;;;9.20;4.32;;;;;;;;;;5070219;28;20024;-72
2023/05/31 06:17:50;;;;;;;10.68;3.80;;;;;;;;;;5065637;28;20028;-72
2023/05/31 06:20:16;;;;;;;9.75;4.22;;;;;;;;;;5059981;28;20024;-74
2023/05/31 06:22:42;;;;;;;10.32;5.28;;;;;;;;;;5054874;28;20017;-74
2023/05/31 06:25:09;;;;;;;11.48;4.93;;;;;;;;;;5058907;28;20849;-74
2023/05/31 06:27:36;;;;;;;12.88;7.03;;;;;;;;;;5062306;28;20039;-74
2023/05/31 06:30:02;;;;;;;14.00;6.00;;;;;;;;;;5064813;28;20029;-73
2023/05/31 06:32:29;;;;;;;11.52;6.40;;;;;;;;;;5064992;28;20031;-70
2023/05/31 06:34:55;;;;;;;10.13;3.53;;;;;;;;;;5066295;28;20047;-74
2023/05/31 06:37:21;;;;;;;6.53;3.10;;;;;;;;;;5048852;28;20040;-72
2023/05/31 06:39:48;;;;;;;6.70;3.03;;;;;;;;;;5060241;28;20433;-72
2023/05/31 06:42:14;;;;;;;8.82;3.13;;;;;;;;;;5047103;28;20033;-73
2023/05/31 06:44:43;;;;;;;9.70;3.47;;;;;;;;;;5046408;28;20051;-72
2023/05/31 06:47:09;;;;;;;14.32;7.22;;;;;;;;;;5047116;28;20035;-71
2023/05/31 06:49:36;;;;;;;12.13;7.03;;;;;;;;;;5049974;28;20021;-71
2023/05/31 06:52:02;;;;;;;7.70;4.25;;;;;;;;;;5056821;28;20112;-73
2023/05/31 06:54:28;;;;;;;14.73;7.43;;;;;;;;;;5062716;28;20440;-70
2023/05/31 06:56:55;;;;;;;11.15;5.93;;;;;;;;;;5066674;28;20098;-72
2023/05/31 06:59:21;;;;;;;13.43;6.90;;;;;;;;;;5066643;28;20419;-72
2023/05/31 07:01:47;;;;;;;12.90;6.40;;;;;;;;;;5064643;28;20462;-72
2023/05/31 07:04:13;;;;;;;14.10;4.70;;;;;;;;;;5053924;28;20493;-70
2023/05/31 07:06:39;;;;;;;9.02;3.20;;;;;;;;;;5067572;28;20031;-72
2023/05/31 07:09:06;;;;;;;10.55;5.03;;;;;;;;;;5052254;28;20025;-72
2023/05/31 07:11:33;;;;;;;8.35;4.88;;;;;;;;;;5057802;28;20475;-73
2023/05/31 07:14:01;;;;;;;12.20;5.97;;;;;;;;;;5067879;28;20116;-73
2023/05/31 07:16:27;;;;;;;7.90;3.17;;;;;;;;;;5068094;28;20020;-72
2023/05/31 07:18:54;;;;;;;7.75;4.43;;;;;;;;;;5046730;28;20032;-71
2023/05/31 07:21:20;;;;;;;10.10;3.88;;;;;;;;;;5058399;28;20239;-72
2023/05/31 07:23:46;;;;;;;13.30;5.10;;;;;;;;;;5051451;28;20483;-73
2023/05/31 07:26:12;;;;;;;9.93;4.60;;;;;;;;;;5047716;28;20060;-73
2023/05/31 07:28:38;;;;;;;10.45;4.80;;;;;;;;;;5063663;28;20558;-75
2023/05/31 07:31:04;;;;;;;11.02;4.05;;;;;;;;;;5067529;28;20033;-72
2023/05/31 07:33:31;;;;;;;7.85;2.60;;;;;;;;;;5068321;28;20020;-73
2023/05/31 07:36:00;;;;;;;12.90;6.63;;;;;;;;;;5057981;28;20024;-74
2023/05/31 07:38:26;;;;;;;7.97;3.83;;;;;;;;;;5067889;28;20104;-73
2023/05/31 07:40:52;;;;;;;9.93;3.90;;;;;;;;;;5067483;28;20330;-71
2023/05/31 07:43:21;;;;;;;12.25;6.00;;;;;;;;;;5047050;28;20171;-72
2023/05/31 07:45:48;;;;;;;28.23;7.50;;;;;;;;;;5048560;28;20017;-73
2023/05/31 07:48:14;;;;;;;10.70;3.83;;;;;;;;;;5047208;28;20029;-72
2023/05/31 07:50:40;;;;;;;10.65;5.10;;;;;;;;;;5046909;28;20567;-72
2023/05/31 07:53:06;;;;;;;15.35;6.25;;;;;;;;;;5066497;28;20029;-76
2023/05/31 07:55:32;;;;;;;12.85;6.00;;;;;;;;;;5066792;28;20020;-78
2023/05/31 07:57:58;;;;;;;13.85;6.47;;;;;;;;;;5035377;28;20097;-77
2023/05/31 08:00:25;;;;;;;13.63;5.18;;;;;;;;;;5060079;28;20037;-76
2023/05/31 08:02:51;;;;;;;12.60;4.15;;;;;;;;;;5055831;28;20414;-74
2023/05/31 08:05:17;;;;;;;9.63;4.55;;;;;;;;;;5067927;28;20024;-73
2023/05/31 08:07:43;;;;;;;15.73;4.80;;;;;;;;;;5058411;28;20044;-75
2023/05/31 08:10:10;;;;;;;16.42;6.80;;;;;;;;;;5056184;28;20046;-75
2023/05/31 08:12:36;;;;;;;12.50;5.15;;;;;;;;;;5066304;28;20021;-75
2023/05/31 08:15:02;;;;;;;12.80;5.45;;;;;;;;;;5055705;28;20104;-76
2023/05/31 08:17:29;;;;;;;11.35;5.28;;;;;;;;;;5069624;28;20032;-71
2023/05/31 08:19:55;;;;;;;13.85;5.38;;;;;;;;;;5060843;28;20106;-71
2023/05/31 08:22:21;;;;;;;7.97;4.00;;;;;;;;;;5056483;28;20574;-74
2023/05/31 08:24:47;;;;;;;9.68;3.63;;;;;;;;;;5056926;28;20025;-70
2023/05/31 08:27:14;;;;;;;7.10;2.28;;;;;;;;;;5065700;28;20395;-71
2023/05/31 08:29:40;;;;;;;8.98;3.22;;;;;;;;;;5071294;28;20040;-69
2023/05/31 08:32:06;;;;;;;12.32;5.13;;;;;;;;;;5053376;28;20025;-69
2023/05/31 08:34:33;;;;;;;5.97;3.00;;;;;;;;;;5058178;28;20025;-69
2023/05/31 08:36:59;;;;;;;13.05;5.15;;;;;;;;;;5058133;28;20445;-70
2023/05/31 08:39:25;;;;;;;24.60;4.97;;;;;;;;;;5064701;28;20021;-69
2023/05/31 08:42:02;;;;;;;54.45;7.57;;;;;;;;;;5060402;28;20071;-70
2023/05/31 08:44:29;;;;;;;8.70;3.38;;;;;;;;;;5053308;28;20033;-74
2023/05/31 08:46:58;;;;;;;13.60;4.15;;;;;;;;;;5057666;28;20029;-74
2023/05/31 08:49:24;;;;;;;8.73;2.92;;;;;;;;;;5062872;28;20104;-74
2023/05/31 08:51:54;;;;;;;12.68;3.28;;;;;;;;;;5051592;28;20649;-74
2023/05/31 08:54:21;;;;;;;10.77;3.90;;;;;;;;;;5062894;28;20031;-72
2023/05/31 08:56:48;;;;;;;7.60;2.80;;;;;;;;;;5070754;28;20772;-73
2023/05/31 08:59:17;;;;;;;7.00;3.58;;;;;;;;;;5057527;28;20052;-72
2023/05/31 09:01:43;;;;;;;8.65;3.70;;;;;;;;;;5041234;28;20448;-74
2023/05/31 09:04:10;;;;;;;8.13;3.55;;;;;;;;;;5056895;28;20116;-74
2023/05/31 09:06:37;;;;;;;11.80;5.03;;;;;;;;;;5070700;28;20112;-73
2023/05/31 09:09:03;;;;;;;12.38;3.88;;;;;;;;;;5039421;28;20018;-75
2023/05/31 09:11:29;;;;;;;12.48;4.20;;;;;;;;;;5057964;28;20025;-74
2023/05/31 09:13:55;;;;;;;8.30;3.15;;;;;;;;;;5056041;28;20082;-73
2023/05/31 09:16:23;;;;;;;20.13;11.07;;;;;;;;;;5050913;28;20029;-73
2023/05/31 09:18:59;;;;;;;8.73;3.60;;;;;;;;;;5056100;28;20115;-71
2023/05/31 09:21:25;;;;;;;11.85;6.38;;;;;;;;;;5067891;28;20494;-76
2023/05/31 09:23:55;;;;;;;9.48;4.30;;;;;;;;;;5070392;28;20104;-78
2023/05/31 09:26:21;;;;;;;6.05;2.72;;;;;;;;;;5061112;28;20017;-75
2023/05/31 09:28:54;;;;;;;6.40;2.42;;;;;;;;;;5060206;28;20036;-72
2023/05/31 09:31:20;;;;;;;11.43;4.50;;;;;;;;;;5050462;28;20077;-73
2023/05/31 09:33:54;;;;;;;8.18;3.28;;;;;;;;;;5050152;28;20025;-73
2023/05/31 09:36:27;;;;;;;14.50;3.88;;;;;;;;;;5050551;28;20032;-75
2023/05/31 09:39:03;;;;;;;9.02;3.38;;;;;;;;;;5053387;28;20508;-74
2023/05/31 09:41:30;;;;;;;43.95;6.75;;;;;;;;;;5064141;28;20128;-72
2023/05/31 09:43:57;;;;;;;14.50;3.83;;;;;;;;;;5063610;28;20024;-72
2023/05/31 09:46:23;;;;;;;14.48;2.78;;;;;;;;;;5071224;28;20028;-75
2023/05/31 09:49:03;;;;;;;10.75;2.83;;;;;;;;;;5070085;28;20073;-73
2023/05/31 09:51:32;;;;;;;12.02;2.60;;;;;;;;;;5071136;28;20083;-74
2023/05/31 09:53:58;;;;;;;14.73;2.90;;;;;;;;;;5050511;28;20395;-73
2023/05/31 09:56:27;;;;;;;9.50;2.85;;;;;;;;;;5070161;28;20024;-72
2023/05/31 09:58:56;;;;;;;8.45;3.63;;;;;;;;;;5070291;28;20083;-73
2023/05/31 10:01:22;;;;;;;7.03;2.97;;;;;;;;;;5063773;28;20044;-71
2023/05/31 10:03:49;;;;;;;5.47;2.35;;;;;;;;;;5063475;28;20037;-71
2023/05/31 10:06:19;;;;;;;5.97;2.10;;;;;;;;;;5055413;28;20036;-72
2023/05/31 10:08:46;;;;;;;5.30;2.00;;;;;;;;;;5068090;28;20039;-73
2023/05/31 10:11:14;;;;;;;11.88;2.65;;;;;;;;;;5061942;28;20032;-72
2023/05/31 10:13:45;;;;;;;8.27;2.65;;;;;;;;;;5049106;28;20498;-73
2023/05/31 10:16:11;;;;;;;8.30;2.60;;;;;;;;;;5069899;28;20058;-72
2023/05/31 10:18:38;;;;;;;7.07;2.30;;;;;;;;;;5069573;28;20356;-72
2023/05/31 10:21:10;;;;;;;7.05;2.30;;;;;;;;;;5045908;28;20028;-73
2023/05/31 10:23:38;;;;;;;16.73;4.13;;;;;;;;;;5069345;28;20024;-73
2023/05/31 10:26:10;;;;;;;110.13;10.60;;;;;;;;;;5050990;28;20029;-72
2023/05/31 10:28:37;;;;;;;10.90;2.42;;;;;;;;;;5069703;28;20016;-72
2023/05/31 10:31:04;;;;;;;13.10;2.88;;;;;;;;;;5069137;28;20028;-73
2023/05/31 10:33:31;;;;;;;10.23;3.15;;;;;;;;;;5068570;28;20096;-73
2023/05/31 10:36:01;;;;;;;10.73;2.70;;;;;;;;;;5068705;28;20020;-72
2023/05/31 10:38:38;;;;;;;10.05;3.35;;;;;;;;;;5068958;28;20032;-70
2023/05/31 10:41:11;;;;;;;8.07;2.80;;;;;;;;;;5068566;28;20042;-71
2023/05/31 10:43:45;;;;;;;7.25;2.40;;;;;;;;;;5069405;28;20112;-72
2023/05/31 10:46:17;;;;;;;9.02;2.60;;;;;;;;;;5055633;28;20025;-70
2023/05/31 10:48:46;;;;;;;9.55;3.17;;;;;;;;;;5068657;28;20394;-71
2023/05/31 10:51:12;;;;;;;8.18;2.40;;;;;;;;;;5068967;28;20060;-71
2023/05/31 10:53:39;;;;;;;8.02;2.28;;;;;;;;;;5065989;28;20028;-71
2023/05/31 10:56:06;;;;;;;8.68;2.20;;;;;;;;;;5060241;28;20024;-71
2023/05/31 10:58:32;;;;;;;11.10;2.80;;;;;;;;;;5055762;28;20586;-72
2023/05/31 11:01:03;;;;;;;6.15;2.25;;;;;;;;;;5053196;28;20013;-70
2023/05/31 11:03:31;;;;;;;7.22;2.67;;;;;;;;;;5057522;28;20025;-73
2023/05/31 11:06:01;;;;;;;9.32;3.60;;;;;;;;;;5055956;28;20039;-73
2023/05/31 11:08:28;;;;;;;6.22;2.42;;;;;;;;;;5059175;28;20082;-74
2023/05/31 11:11:14;;;;;;;7.07;2.22;;;;;;;;;;5059553;28;20025;-71
2023/05/31 11:13:59;;;;;;;6.78;2.40;;;;;;;;;;5059420;28;20687;-72
2023/05/31 11:16:26;;;;;;;6.43;2.50;;;;;;;;;;5060447;28;20029;-71
2023/05/31 11:19:05;;;;;;;5.75;2.80;;;;;;;;;;5040560;28;20028;-72
2023/05/31 11:21:50;;;;;;;12.35;4.15;;;;;;;;;;5057747;28;20029;-72
2023/05/31 11:24:26;;;;;;;7.78;2.35;;;;;;;;;;5057198;28;20021;-72
2023/05/31 11:26:53;;;;;;;9.18;2.80;;;;;;;;;;5055719;28;20062;-71
2023/05/31 11:29:19;;;;;;;7.25;2.70;;;;;;;;;;5058369;28;20082;-72
2023/05/31 11:31:54;;;;;;;6.68;2.53;;;;;;;;;;5058263;28;20021;-71
2023/05/31 11:34:29;;;;;;;5.18;2.28;;;;;;;;;;5059807;28;20342;-72
2023/05/31 11:36:59;;;;;;;10.13;2.55;;;;;;;;;;5058313;28;20079;-71
2023/05/31 11:39:26;;;;;;;8.10;3.20;;;;;;;;;;5062124;28;20037;-74
2023/05/31 11:41:53;;;;;;;6.05;2.10;;;;;;;;;;5067937;28;20128;-74
2023/05/31 11:44:21;;;;;;;8.43;3.30;;;;;;;;;;5066559;28;20475;-73
2023/05/31 11:46:49;;;;;;;8.15;2.00;;;;;;;;;;5062956;28;20108;-73
2023/05/31 11:49:15;;;;;;;7.50;2.05;;;;;;;;;;5067108;28;20025;-74
2023/05/31 11:51:43;;;;;;;7.10;3.20;;;;;;;;;;5060753;28;20020;-71
2023/05/31 11:54:11;;;;;;;6.78;2.58;;;;;;;;;;5052425;28;20064;-73
2023/05/31 11:56:38;;;;;;;8.57;3.20;;;;;;;;;;5052112;28;20021;-73
2023/05/31 11:59:04;;;;;;;8.07;2.53;;;;;;;;;;5051606;28;20052;-74
2023/05/31 12:01:36;;;;;;;7.05;3.08;;;;;;;;;;5062435;28;20128;-72
2023/05/31 12:04:02;;;;;;;8.75;2.90;;;;;;;;;;5071830;28;20048;-74
2023/05/31 12:06:28;;;;;;;5.32;2.05;;;;;;;;;;5072476;28;20041;-72
2023/05/31 12:08:55;;;;;;;8.18;2.58;;;;;;;;;;5071211;28;20028;-73
2023/05/31 12:11:24;;;;;;;7.07;2.75;;;;;;;;;;5072332;28;20016;-73
2023/05/31 12:13:50;;;;;;;7.72;2.65;;;;;;;;;;5053632;28;20759;-72
2023/05/31 12:16:16;;;;;;;6.20;2.53;;;;;;;;;;5071708;28;20466;-72
2023/05/31 12:18:42;;;;;;;6.00;2.10;;;;;;;;;;5072204;28;20103;-72
2023/05/31 12:21:09;;;;;;;6.85;2.17;;;;;;;;;;5071777;28;20333;-72
2023/05/31 12:23:58;;;;;;;7.68;2.47;;;;;;;;;;5070551;28;20066;-72
2023/05/31 12:26:28;;;;;;;10.30;3.10;;;;;;;;;;5069607;28;20123;-73
2023/05/31 12:28:55;;;;;;;6.88;2.42;;;;;;;;;;5070970;28;20024;-72
2023/05/31 12:31:24;;;;;;;8.27;2.92;;;;;;;;;;5058431;28;20057;-73
2023/05/31 12:34:00;;;;;;;9.73;2.83;;;;;;;;;;5059621;28;20016;-75
2023/05/31 12:36:26;;;;;;;6.40;2.33;;;;;;;;;;5058992;28;20033;-73
2023/05/31 12:38:59;;;;;;;7.18;2.50;;;;;;;;;;5053424;28;20033;-73
2023/05/31 12:41:26;;;;;;;9.05;3.20;;;;;;;;;;5071475;28;20029;-74
2023/05/31 12:43:53;;;;;;;7.43;2.92;;;;;;;;;;5072011;28;20025;-74
2023/05/31 12:46:19;;;;;;;9.25;3.72;;;;;;;;;;5071160;28;20075;-74
2023/05/31 12:48:48;;;;;;;6.90;2.47;;;;;;;;;;5067467;28;20028;-72
2023/05/31 12:51:21;;;;;;;6.30;2.50;;;;;;;;;;5052339;28;20828;-73
2023/05/31 12:53:47;;;;;;;9.77;2.72;;;;;;;;;;5071740;28;20142;-73
2023/05/31 12:56:13;;;;;;;9.85;2.72;;;;;;;;;;5071246;28;20103;-74
2023/05/31 12:58:39;;;;;;;8.75;3.33;;;;;;;;;;5060216;28;20136;-74
2023/05/31 13:01:07;;;;;;;9.05;3.28;;;;;;;;;;5066005;28;20123;-74
2023/05/31 13:03:33;;;;;;;5.75;2.45;;;;;;;;;;5070996;28;20112;-73
2023/05/31 13:05:59;;;;;;;6.70;2.47;;;;;;;;;;5070354;28;20532;-75
2023/05/31 13:08:25;;;;;;;10.93;3.78;;;;;;;;;;5071171;28;20025;-74
2023/05/31 13:10:52;;;;;;;7.68;2.78;;;;;;;;;;5070066;28;20025;-73
2023/05/31 13:13:19;;;;;;;14.48;3.88;;;;;;;;;;5070868;28;20024;-73
2023/05/31 13:15:45;;;;;;;8.32;2.55;;;;;;;;;;5070355;28;20028;-73
2023/05/31 13:18:12;;;;;;;7.72;3.13;;;;;;;;;;5070691;28;20467;-73
2023/05/31 13:20:38;;;;;;;8.40;3.30;;;;;;;;;;5070430;28;20827;-71
2023/05/31 13:23:08;;;;;;;8.30;2.00;;;;;;;;;;5069842;28;20030;-73
2023/05/31 13:25:34;;;;;;;4.90;2.17;;;;;;;;;;5064997;28;20566;-72
2023/05/31 13:28:00;;;;;;;5.25;2.28;;;;;;;;;;5045278;28;20041;-73
2023/05/31 13:30:27;;;;;;;6.32;2.47;;;;;;;;;;5048515;28;20072;-73
2023/05/31 13:32:53;;;;;;;6.35;2.85;;;;;;;;;;5050191;28;20395;-72
2023/05/31 13:35:19;;;;;;;8.20;2.90;;;;;;;;;;5052438;28;20024;-73
2023/05/31 13:37:45;;;;;;;6.93;2.72;;;;;;;;;;5064728;28;20554;-75
2023/05/31 13:40:11;;;;;;;7.53;2.72;;;;;;;;;;5070111;28;20025;-74
2023/05/31 13:42:38;;;;;;;7.25;2.85;;;;;;;;;;5069797;28;20020;-74
2023/05/31 13:45:04;;;;;;;6.85;2.35;;;;;;;;;;5062773;28;20386;-73
2023/05/31 13:47:30;;;;;;;5.63;1.98;;;;;;;;;;5057660;28;20145;-73
2023/05/31 13:49:56;;;;;;;8.65;3.15;;;;;;;;;;5059904;28;20024;-74
2023/05/31 13:52:22;;;;;;;5.43;2.05;;;;;;;;;;5070227;28;20032;-74
2023/05/31 13:54:48;;;;;;;6.85;2.58;;;;;;;;;;5069553;28;20607;-74
2023/05/31 13:57:14;;;;;;;6.53;2.60;;;;;;;;;;5055944;28;20136;-74
2023/05/31 13:59:41;;;;;;;13.45;3.20;;;;;;;;;;5054075;28;20020;-73
2023/05/31 14:02:07;;;;;;;8.65;2.65;;;;;;;;;;5052556;28;20082;-75
2023/05/31 14:04:33;;;;;;;8.10;2.75;;;;;;;;;;5047054;28;20025;-73
2023/05/31 14:06:59;;;;;;;10.18;2.60;;;;;;;;;;5059903;28;20036;-73
2023/05/31 14:09:26;;;;;;;9.40;2.58;;;;;;;;;;5068243;28;20438;-73
2023/05/31 14:11:52;;;;;;;5.68;2.47;;;;;;;;;;5067543;28;20079;-74
2023/05/31 14:14:18;;;;;;;7.57;2.78;;;;;;;;;;5061337;28;20028;-73
2023/05/31 14:16:44;;;;;;;5.15;2.13;;;;;;;;;;5060363;28;20033;-75
2023/05/31 14:19:10;;;;;;;7.50;2.20;;;;;;;;;;5049222;28;20036;-73
2023/05/31 14:21:36;;;;;;;5.38;2.08;;;;;;;;;;5067645;28;20028;-73
2023/05/31 14:24:03;;;;;;;7.53;2.38;;;;;;;;;;5060273;28;20025;-72
2023/05/31 14:26:29;;;;;;;7.68;2.60;;;;;;;;;;5048597;28;20174;-73
2023/05/31 14:28:56;;;;;;;5.88;2.20;;;;;;;;;;5047680;28;20036;-74
2023/05/31 14:31:22;;;;;;;7.22;2.47;;;;;;;;;;5048604;28;20029;-73
2023/05/31 14:33:48;;;;;;;5.90;2.72;;;;;;;;;;5049501;28;20422;-74
2023/05/31 14:36:14;;;;;;;5.90;2.40;;;;;;;;;;5063694;28;20052;-74